sensor_id;sensor_type;location;lat;lon;timestamp;P1;durP1;ratioP1;P2;durP2;ratioP2
78871;SDS011;68247;43.514;1.502;2024-02-26T00:01:21;1.67;;;0.93;;
78871;SDS011;68247;43.514;1.502;2024-02-26T00:03:46;2.27;;;2.03;;
78871;SDS011;68247;43.514;1.502;2024-02-26T00:06:12;1.50;;;0.80;;
78871;SDS011;68247;43.514;1.502;2024-02-26T00:08:38;1.50;;;0.90;;
78871;SDS011;68247;43.514;1.502;2024-02-26T00:11:03;1.40;;;0.80;;
78871;SDS011;68247;43.514;1.502;2024-02-26T00:13:28;1.42;;;0.82;;
78871;SDS011;68247;43.514;1.502;2024-02-26T00:15:54;1.23;;;0.60;;
78871;SDS011;68247;43.514;1.502;2024-02-26T00:18:19;1.40;;;0.80;;
78871;SDS011;68247;43.514;1.502;2024-02-26T00:20:45;1.77;;;1.10;;
78871;SDS011;68247;43.514;1.502;2024-02-26T00:23:10;1.63;;;1.10;;
78871;SDS011;68247;43.514;1.502;2024-02-26T00:25:35;1.70;;;1.03;;
78871;SDS011;68247;43.514;1.502;2024-02-26T00:28:02;1.90;;;1.35;;
78871;SDS011;68247;43.514;1.502;2024-02-26T00:30:29;2.15;;;1.30;;
78871;SDS011;68247;43.514;1.502;2024-02-26T00:32:55;1.60;;;0.90;;
78871;SDS011;68247;43.514;1.502;2024-02-26T00:35:20;1.57;;;0.90;;
78871;SDS011;68247;43.514;1.502;2024-02-26T00:37:45;1.50;;;0.75;;
78871;SDS011;68247;43.514;1.502;2024-02-26T00:40:11;1.40;;;0.70;;
78871;SDS011;68247;43.514;1.502;2024-02-26T00:42:36;3.80;;;1.20;;
78871;SDS011;68247;43.514;1.502;2024-02-26T00:45:02;2.38;;;1.35;;
78871;SDS011;68247;43.514;1.502;2024-02-26T00:47:28;1.98;;;1.23;;
78871;SDS011;68247;43.514;1.502;2024-02-26T00:49:53;2.40;;;2.10;;
78871;SDS011;68247;43.514;1.502;2024-02-26T00:52:18;5.27;;;1.30;;
78871;SDS011;68247;43.514;1.502;2024-02-26T00:54:44;1.73;;;1.10;;
78871;SDS011;68247;43.514;1.502;2024-02-26T00:57:09;1.37;;;0.80;;
78871;SDS011;68247;43.514;1.502;2024-02-26T00:59:35;1.30;;;0.63;;
78871;SDS011;68247;43.514;1.502;2024-02-26T01:02:00;1.57;;;0.90;;
78871;SDS011;68247;43.514;1.502;2024-02-26T01:04:27;1.70;;;1.10;;
78871;SDS011;68247;43.514;1.502;2024-02-26T01:06:52;1.55;;;1.08;;
78871;SDS011;68247;43.514;1.502;2024-02-26T01:09:18;1.98;;;1.45;;
78871;SDS011;68247;43.514;1.502;2024-02-26T01:11:43;1.80;;;1.33;;
78871;SDS011;68247;43.514;1.502;2024-02-26T01:14:09;2.37;;;1.67;;
78871;SDS011;68247;43.514;1.502;2024-02-26T01:16:34;2.72;;;1.55;;
78871;SDS011;68247;43.514;1.502;2024-02-26T01:19:00;2.15;;;1.15;;
78871;SDS011;68247;43.514;1.502;2024-02-26T01:21:25;1.70;;;1.00;;
78871;SDS011;68247;43.514;1.502;2024-02-26T01:23:54;4.15;;;1.55;;
78871;SDS011;68247;43.514;1.502;2024-02-26T01:26:19;1.60;;;1.00;;
78871;SDS011;68247;43.514;1.502;2024-02-26T01:28:46;2.15;;;1.77;;
78871;SDS011;68247;43.514;1.502;2024-02-26T01:31:11;1.70;;;1.03;;
78871;SDS011;68247;43.514;1.502;2024-02-26T01:33:37;1.77;;;1.20;;
78871;SDS011;68247;43.514;1.502;2024-02-26T01:36:02;1.60;;;1.00;;
78871;SDS011;68247;43.514;1.502;2024-02-26T01:38:28;1.87;;;1.37;;
78871;SDS011;68247;43.514;1.502;2024-02-26T01:40:53;1.50;;;0.90;;
78871;SDS011;68247;43.514;1.502;2024-02-26T01:43:18;1.60;;;1.00;;
78871;SDS011;68247;43.514;1.502;2024-02-26T01:45:44;2.00;;;1.20;;
78871;SDS011;68247;43.514;1.502;2024-02-26T01:48:09;1.60;;;1.13;;
78871;SDS011;68247;43.514;1.502;2024-02-26T01:50:35;1.73;;;1.03;;
78871;SDS011;68247;43.514;1.502;2024-02-26T01:53:03;1.92;;;1.30;;
78871;SDS011;68247;43.514;1.502;2024-02-26T01:55:28;1.40;;;0.80;;
78871;SDS011;68247;43.514;1.502;2024-02-26T01:57:54;1.70;;;1.07;;
78871;SDS011;68247;43.514;1.502;2024-02-26T02:00:20;1.50;;;1.00;;
78871;SDS011;68247;43.514;1.502;2024-02-26T02:02:46;1.63;;;0.85;;
78871;SDS011;68247;43.514;1.502;2024-02-26T02:05:14;1.95;;;1.10;;
78871;SDS011;68247;43.514;1.502;2024-02-26T02:07:41;1.40;;;0.77;;
78871;SDS011;68247;43.514;1.502;2024-02-26T02:10:07;1.80;;;1.20;;
78871;SDS011;68247;43.514;1.502;2024-02-26T02:12:33;2.40;;;1.10;;
78871;SDS011;68247;43.514;1.502;2024-02-26T02:14:59;1.88;;;1.52;;
78871;SDS011;68247;43.514;1.502;2024-02-26T02:17:25;1.40;;;0.73;;
78871;SDS011;68247;43.514;1.502;2024-02-26T02:19:51;1.52;;;0.90;;
78871;SDS011;68247;43.514;1.502;2024-02-26T02:22:17;1.70;;;1.00;;
78871;SDS011;68247;43.514;1.502;2024-02-26T02:24:43;1.83;;;1.23;;
78871;SDS011;68247;43.514;1.502;2024-02-26T02:27:08;1.90;;;1.40;;
78871;SDS011;68247;43.514;1.502;2024-02-26T02:29:33;1.47;;;0.87;;
78871;SDS011;68247;43.514;1.502;2024-02-26T02:31:59;1.47;;;0.87;;
78871;SDS011;68247;43.514;1.502;2024-02-26T02:34:26;1.27;;;0.68;;
78871;SDS011;68247;43.514;1.502;2024-02-26T02:36:52;1.50;;;0.90;;
78871;SDS011;68247;43.514;1.502;2024-02-26T02:39:17;1.67;;;1.10;;
78871;SDS011;68247;43.514;1.502;2024-02-26T02:41:43;1.57;;;0.93;;
78871;SDS011;68247;43.514;1.502;2024-02-26T02:44:08;1.88;;;1.30;;
78871;SDS011;68247;43.514;1.502;2024-02-26T02:46:34;2.17;;;1.67;;
78871;SDS011;68247;43.514;1.502;2024-02-26T02:49:00;1.60;;;1.00;;
78871;SDS011;68247;43.514;1.502;2024-02-26T02:51:26;1.50;;;1.00;;
78871;SDS011;68247;43.514;1.502;2024-02-26T02:53:51;1.70;;;1.00;;
78871;SDS011;68247;43.514;1.502;2024-02-26T02:56:17;1.47;;;0.80;;
78871;SDS011;68247;43.514;1.502;2024-02-26T02:58:42;1.70;;;1.00;;
78871;SDS011;68247;43.514;1.502;2024-02-26T03:01:07;1.53;;;0.93;;
78871;SDS011;68247;43.514;1.502;2024-02-26T03:03:33;1.75;;;1.42;;
78871;SDS011;68247;43.514;1.502;2024-02-26T03:05:58;1.70;;;1.03;;
78871;SDS011;68247;43.514;1.502;2024-02-26T03:08:24;2.50;;;0.90;;
78871;SDS011;68247;43.514;1.502;2024-02-26T03:10:50;1.88;;;1.23;;
78871;SDS011;68247;43.514;1.502;2024-02-26T03:13:16;1.87;;;0.97;;
78871;SDS011;68247;43.514;1.502;2024-02-26T03:15:42;1.75;;;1.20;;
78871;SDS011;68247;43.514;1.502;2024-02-26T03:18:07;1.57;;;0.90;;
78871;SDS011;68247;43.514;1.502;2024-02-26T03:20:32;1.70;;;1.10;;
78871;SDS011;68247;43.514;1.502;2024-02-26T03:22:58;1.87;;;1.20;;
78871;SDS011;68247;43.514;1.502;2024-02-26T03:25:24;1.48;;;0.80;;
78871;SDS011;68247;43.514;1.502;2024-02-26T03:27:49;1.30;;;0.67;;
78871;SDS011;68247;43.514;1.502;2024-02-26T03:30:15;1.50;;;1.10;;
78871;SDS011;68247;43.514;1.502;2024-02-26T03:32:40;1.50;;;0.80;;
78871;SDS011;68247;43.514;1.502;2024-02-26T03:35:06;1.30;;;0.67;;
78871;SDS011;68247;43.514;1.502;2024-02-26T03:37:32;1.52;;;0.95;;
78871;SDS011;68247;43.514;1.502;2024-02-26T03:39:58;1.85;;;1.38;;
78871;SDS011;68247;43.514;1.502;2024-02-26T03:42:23;1.40;;;0.70;;
78871;SDS011;68247;43.514;1.502;2024-02-26T03:44:49;1.67;;;1.00;;
78871;SDS011;68247;43.514;1.502;2024-02-26T03:47:15;1.48;;;0.80;;
78871;SDS011;68247;43.514;1.502;2024-02-26T03:49:41;1.70;;;1.10;;
78871;SDS011;68247;43.514;1.502;2024-02-26T03:52:06;1.38;;;0.70;;
78871;SDS011;68247;43.514;1.502;2024-02-26T03:54:32;2.17;;;1.30;;
78871;SDS011;68247;43.514;1.502;2024-02-26T03:56:57;1.73;;;1.30;;
78871;SDS011;68247;43.514;1.502;2024-02-26T03:59:22;3.37;;;1.87;;
78871;SDS011;68247;43.514;1.502;2024-02-26T04:01:50;1.90;;;1.70;;
78871;SDS011;68247;43.514;1.502;2024-02-26T04:04:16;1.30;;;0.70;;
78871;SDS011;68247;43.514;1.502;2024-02-26T04:06:45;2.03;;;1.40;;
78871;SDS011;68247;43.514;1.502;2024-02-26T04:09:11;1.50;;;0.85;;
78871;SDS011;68247;43.514;1.502;2024-02-26T04:11:37;3.95;;;2.28;;
78871;SDS011;68247;43.514;1.502;2024-02-26T04:14:02;1.55;;;0.90;;
78871;SDS011;68247;43.514;1.502;2024-02-26T04:16:28;1.33;;;0.70;;
78871;SDS011;68247;43.514;1.502;2024-02-26T04:18:53;1.98;;;1.70;;
78871;SDS011;68247;43.514;1.502;2024-02-26T04:21:19;1.30;;;0.70;;
78871;SDS011;68247;43.514;1.502;2024-02-26T04:23:45;1.70;;;1.00;;
78871;SDS011;68247;43.514;1.502;2024-02-26T04:26:10;1.50;;;0.80;;
78871;SDS011;68247;43.514;1.502;2024-02-26T04:28:36;1.40;;;0.70;;
78871;SDS011;68247;43.514;1.502;2024-02-26T04:31:01;1.43;;;0.90;;
78871;SDS011;68247;43.514;1.502;2024-02-26T04:33:27;1.40;;;0.80;;
78871;SDS011;68247;43.514;1.502;2024-02-26T04:35:52;1.60;;;0.90;;
78871;SDS011;68247;43.514;1.502;2024-02-26T04:38:18;1.70;;;1.00;;
78871;SDS011;68247;43.514;1.502;2024-02-26T04:40:43;1.58;;;0.93;;
78871;SDS011;68247;43.514;1.502;2024-02-26T04:43:08;1.50;;;0.88;;
78871;SDS011;68247;43.514;1.502;2024-02-26T04:45:34;1.63;;;0.97;;
78871;SDS011;68247;43.514;1.502;2024-02-26T04:47:59;1.20;;;0.60;;
78871;SDS011;68247;43.514;1.502;2024-02-26T04:50:25;1.50;;;0.80;;
78871;SDS011;68247;43.514;1.502;2024-02-26T04:52:50;1.42;;;0.80;;
78871;SDS011;68247;43.514;1.502;2024-02-26T04:55:15;1.40;;;0.70;;
78871;SDS011;68247;43.514;1.502;2024-02-26T04:57:42;3.87;;;1.20;;
78871;SDS011;68247;43.514;1.502;2024-02-26T05:00:08;2.30;;;1.10;;
78871;SDS011;68247;43.514;1.502;2024-02-26T05:02:34;4.72;;;1.10;;
78871;SDS011;68247;43.514;1.502;2024-02-26T05:05:03;2.28;;;1.33;;
78871;SDS011;68247;43.514;1.502;2024-02-26T05:07:30;2.42;;;1.40;;
78871;SDS011;68247;43.514;1.502;2024-02-26T05:09:55;4.57;;;1.67;;
78871;SDS011;68247;43.514;1.502;2024-02-26T05:12:21;2.60;;;1.40;;
78871;SDS011;68247;43.514;1.502;2024-02-26T05:14:46;4.57;;;1.40;;
78871;SDS011;68247;43.514;1.502;2024-02-26T05:17:11;2.70;;;1.13;;
78871;SDS011;68247;43.514;1.502;2024-02-26T05:19:37;2.83;;;1.17;;
78871;SDS011;68247;43.514;1.502;2024-02-26T05:22:02;2.83;;;1.07;;
78871;SDS011;68247;43.514;1.502;2024-02-26T05:24:28;3.67;;;1.23;;
78871;SDS011;68247;43.514;1.502;2024-02-26T05:26:53;3.22;;;1.10;;
78871;SDS011;68247;43.514;1.502;2024-02-26T05:29:19;4.00;;;1.20;;
78871;SDS011;68247;43.514;1.502;2024-02-26T05:31:45;5.22;;;1.48;;
78871;SDS011;68247;43.514;1.502;2024-02-26T05:34:10;5.80;;;1.43;;
78871;SDS011;68247;43.514;1.502;2024-02-26T05:36:35;4.17;;;1.13;;
78871;SDS011;68247;43.514;1.502;2024-02-26T05:39:01;4.27;;;1.40;;
78871;SDS011;68247;43.514;1.502;2024-02-26T05:41:26;6.47;;;1.30;;
78871;SDS011;68247;43.514;1.502;2024-02-26T05:43:52;4.53;;;1.40;;
78871;SDS011;68247;43.514;1.502;2024-02-26T05:46:18;4.55;;;1.27;;
78871;SDS011;68247;43.514;1.502;2024-02-26T05:48:45;3.87;;;1.20;;
78871;SDS011;68247;43.514;1.502;2024-02-26T05:51:15;7.45;;;1.88;;
78871;SDS011;68247;43.514;1.502;2024-02-26T05:53:41;5.67;;;1.10;;
78871;SDS011;68247;43.514;1.502;2024-02-26T05:56:06;5.40;;;1.60;;
78871;SDS011;68247;43.514;1.502;2024-02-26T05:58:32;6.83;;;1.80;;
78871;SDS011;68247;43.514;1.502;2024-02-26T06:00:57;5.00;;;1.53;;
78871;SDS011;68247;43.514;1.502;2024-02-26T06:03:23;3.40;;;1.33;;
78871;SDS011;68247;43.514;1.502;2024-02-26T06:05:48;3.83;;;1.20;;
78871;SDS011;68247;43.514;1.502;2024-02-26T06:08:13;6.07;;;1.77;;
78871;SDS011;68247;43.514;1.502;2024-02-26T06:10:39;6.80;;;1.50;;
78871;SDS011;68247;43.514;1.502;2024-02-26T06:13:04;6.37;;;1.40;;
78871;SDS011;68247;43.514;1.502;2024-02-26T06:15:30;5.22;;;1.40;;
78871;SDS011;68247;43.514;1.502;2024-02-26T06:17:55;4.87;;;1.70;;
78871;SDS011;68247;43.514;1.502;2024-02-26T06:20:21;4.87;;;1.67;;
78871;SDS011;68247;43.514;1.502;2024-02-26T06:22:46;5.53;;;1.47;;
78871;SDS011;68247;43.514;1.502;2024-02-26T06:25:11;5.25;;;1.40;;
78871;SDS011;68247;43.514;1.502;2024-02-26T06:27:37;6.37;;;1.90;;
78871;SDS011;68247;43.514;1.502;2024-02-26T06:30:02;6.97;;;1.73;;
78871;SDS011;68247;43.514;1.502;2024-02-26T06:32:28;4.45;;;1.33;;
78871;SDS011;68247;43.514;1.502;2024-02-26T06:34:54;6.03;;;2.00;;
78871;SDS011;68247;43.514;1.502;2024-02-26T06:37:20;8.30;;;2.03;;
78871;SDS011;68247;43.514;1.502;2024-02-26T06:39:45;8.10;;;2.03;;
78871;SDS011;68247;43.514;1.502;2024-02-26T06:42:11;5.60;;;1.40;;
78871;SDS011;68247;43.514;1.502;2024-02-26T06:44:36;5.88;;;1.38;;
78871;SDS011;68247;43.514;1.502;2024-02-26T06:47:02;3.23;;;1.53;;
78871;SDS011;68247;43.514;1.502;2024-02-26T06:49:27;6.27;;;1.60;;
78871;SDS011;68247;43.514;1.502;2024-02-26T06:51:53;4.75;;;1.50;;
78871;SDS011;68247;43.514;1.502;2024-02-26T06:54:19;3.90;;;1.30;;
78871;SDS011;68247;43.514;1.502;2024-02-26T06:56:44;3.95;;;1.20;;
78871;SDS011;68247;43.514;1.502;2024-02-26T06:59:10;5.17;;;1.50;;
78871;SDS011;68247;43.514;1.502;2024-02-26T07:01:35;5.53;;;1.10;;
78871;SDS011;68247;43.514;1.502;2024-02-26T07:04:00;2.70;;;1.40;;
78871;SDS011;68247;43.514;1.502;2024-02-26T07:06:28;4.53;;;1.30;;
78871;SDS011;68247;43.514;1.502;2024-02-26T07:08:54;3.13;;;1.30;;
78871;SDS011;68247;43.514;1.502;2024-02-26T07:11:20;3.30;;;1.23;;
78871;SDS011;68247;43.514;1.502;2024-02-26T07:13:48;3.37;;;1.30;;
78871;SDS011;68247;43.514;1.502;2024-02-26T07:16:14;5.13;;;1.33;;
78871;SDS011;68247;43.514;1.502;2024-02-26T07:18:40;6.17;;;1.30;;
78871;SDS011;68247;43.514;1.502;2024-02-26T07:21:06;4.30;;;1.20;;
78871;SDS011;68247;43.514;1.502;2024-02-26T07:23:31;5.00;;;1.52;;
78871;SDS011;68247;43.514;1.502;2024-02-26T07:25:57;4.20;;;1.30;;
78871;SDS011;68247;43.514;1.502;2024-02-26T07:28:22;4.90;;;1.37;;
78871;SDS011;68247;43.514;1.502;2024-02-26T07:30:47;5.10;;;1.27;;
78871;SDS011;68247;43.514;1.502;2024-02-26T07:33:13;6.10;;;1.40;;
78871;SDS011;68247;43.514;1.502;2024-02-26T07:35:38;7.18;;;1.20;;
78871;SDS011;68247;43.514;1.502;2024-02-26T07:38:04;3.00;;;1.37;;
78871;SDS011;68247;43.514;1.502;2024-02-26T07:40:30;4.15;;;1.30;;
78871;SDS011;68247;43.514;1.502;2024-02-26T07:42:55;3.83;;;1.20;;
78871;SDS011;68247;43.514;1.502;2024-02-26T07:45:21;5.67;;;1.40;;
78871;SDS011;68247;43.514;1.502;2024-02-26T07:47:47;3.85;;;1.10;;
78871;SDS011;68247;43.514;1.502;2024-02-26T07:50:12;5.40;;;1.20;;
78871;SDS011;68247;43.514;1.502;2024-02-26T07:52:38;5.05;;;1.20;;
78871;SDS011;68247;43.514;1.502;2024-02-26T07:55:04;4.80;;;1.20;;
78871;SDS011;68247;43.514;1.502;2024-02-26T07:57:30;6.55;;;1.40;;
78871;SDS011;68247;43.514;1.502;2024-02-26T07:59:57;5.97;;;1.23;;
78871;SDS011;68247;43.514;1.502;2024-02-26T08:02:22;3.07;;;1.20;;
78871;SDS011;68247;43.514;1.502;2024-02-26T08:04:48;4.93;;;1.42;;
78871;SDS011;68247;43.514;1.502;2024-02-26T08:07:13;2.60;;;1.17;;
78871;SDS011;68247;43.514;1.502;2024-02-26T08:09:38;5.10;;;1.30;;
78871;SDS011;68247;43.514;1.502;2024-02-26T08:12:04;7.83;;;1.50;;
78871;SDS011;68247;43.514;1.502;2024-02-26T08:14:30;6.35;;;1.38;;
78871;SDS011;68247;43.514;1.502;2024-02-26T08:16:57;4.75;;;1.63;;
78871;SDS011;68247;43.514;1.502;2024-02-26T08:19:23;3.78;;;1.50;;
78871;SDS011;68247;43.514;1.502;2024-02-26T08:21:49;5.38;;;1.50;;
78871;SDS011;68247;43.514;1.502;2024-02-26T08:24:14;5.67;;;1.60;;
78871;SDS011;68247;43.514;1.502;2024-02-26T08:26:40;3.90;;;1.30;;
78871;SDS011;68247;43.514;1.502;2024-02-26T08:29:05;6.03;;;1.50;;
78871;SDS011;68247;43.514;1.502;2024-02-26T08:31:30;4.77;;;1.10;;
78871;SDS011;68247;43.514;1.502;2024-02-26T08:33:56;6.88;;;1.60;;
78871;SDS011;68247;43.514;1.502;2024-02-26T08:36:22;5.22;;;1.40;;
78871;SDS011;68247;43.514;1.502;2024-02-26T08:38:47;5.13;;;1.50;;
78871;SDS011;68247;43.514;1.502;2024-02-26T08:41:13;6.88;;;1.48;;
78871;SDS011;68247;43.514;1.502;2024-02-26T08:43:38;7.53;;;1.57;;
78871;SDS011;68247;43.514;1.502;2024-02-26T08:46:03;6.63;;;1.70;;
78871;SDS011;68247;43.514;1.502;2024-02-26T08:48:29;6.30;;;1.37;;
78871;SDS011;68247;43.514;1.502;2024-02-26T08:50:54;4.67;;;1.67;;
78871;SDS011;68247;43.514;1.502;2024-02-26T08:53:20;9.02;;;1.80;;
78871;SDS011;68247;43.514;1.502;2024-02-26T08:55:46;4.63;;;1.60;;
78871;SDS011;68247;43.514;1.502;2024-02-26T08:58:11;5.25;;;1.48;;
78871;SDS011;68247;43.514;1.502;2024-02-26T09:00:37;7.47;;;1.50;;
78871;SDS011;68247;43.514;1.502;2024-02-26T09:03:02;8.27;;;1.27;;
78871;SDS011;68247;43.514;1.502;2024-02-26T09:05:28;7.97;;;1.30;;
78871;SDS011;68247;43.514;1.502;2024-02-26T09:07:53;7.43;;;1.40;;
78871;SDS011;68247;43.514;1.502;2024-02-26T09:10:19;7.85;;;2.13;;
78871;SDS011;68247;43.514;1.502;2024-02-26T09:12:44;4.93;;;1.50;;
78871;SDS011;68247;43.514;1.502;2024-02-26T09:15:10;6.47;;;1.50;;
78871;SDS011;68247;43.514;1.502;2024-02-26T09:17:35;5.63;;;1.70;;
78871;SDS011;68247;43.514;1.502;2024-02-26T09:20:02;5.90;;;1.50;;
78871;SDS011;68247;43.514;1.502;2024-02-26T09:22:28;7.90;;;1.90;;
78871;SDS011;68247;43.514;1.502;2024-02-26T09:24:53;3.88;;;1.20;;
78871;SDS011;68247;43.514;1.502;2024-02-26T09:27:18;14.63;;;2.42;;
78871;SDS011;68247;43.514;1.502;2024-02-26T09:29:44;8.00;;;1.60;;
78871;SDS011;68247;43.514;1.502;2024-02-26T09:32:09;7.30;;;1.87;;
78871;SDS011;68247;43.514;1.502;2024-02-26T09:34:35;5.97;;;1.80;;
78871;SDS011;68247;43.514;1.502;2024-02-26T09:37:00;5.75;;;1.38;;
78871;SDS011;68247;43.514;1.502;2024-02-26T09:39:26;6.33;;;1.70;;
78871;SDS011;68247;43.514;1.502;2024-02-26T09:41:52;5.95;;;1.55;;
78871;SDS011;68247;43.514;1.502;2024-02-26T09:44:18;4.17;;;1.53;;
78871;SDS011;68247;43.514;1.502;2024-02-26T09:46:46;7.22;;;1.40;;
78871;SDS011;68247;43.514;1.502;2024-02-26T09:49:12;7.22;;;1.70;;
78871;SDS011;68247;43.514;1.502;2024-02-26T09:51:39;5.13;;;1.50;;
78871;SDS011;68247;43.514;1.502;2024-02-26T09:54:05;5.10;;;1.30;;
78871;SDS011;68247;43.514;1.502;2024-02-26T09:56:32;5.13;;;1.40;;
78871;SDS011;68247;43.514;1.502;2024-02-26T09:58:57;4.88;;;1.42;;
78871;SDS011;68247;43.514;1.502;2024-02-26T10:01:23;4.33;;;1.17;;
78871;SDS011;68247;43.514;1.502;2024-02-26T10:03:56;6.50;;;1.38;;
78871;SDS011;68247;43.514;1.502;2024-02-26T10:06:23;4.75;;;1.38;;
78871;SDS011;68247;43.514;1.502;2024-02-26T10:08:50;4.00;;;1.10;;
78871;SDS011;68247;43.514;1.502;2024-02-26T10:11:15;4.22;;;1.40;;
78871;SDS011;68247;43.514;1.502;2024-02-26T10:13:41;7.87;;;1.40;;
78871;SDS011;68247;43.514;1.502;2024-02-26T10:16:06;5.17;;;1.23;;
78871;SDS011;68247;43.514;1.502;2024-02-26T10:18:45;4.95;;;1.60;;
78871;SDS011;68247;43.514;1.502;2024-02-26T10:21:12;6.20;;;1.10;;
78871;SDS011;68247;43.514;1.502;2024-02-26T10:23:38;5.15;;;1.40;;
78871;SDS011;68247;43.514;1.502;2024-02-26T10:26:04;4.87;;;1.40;;
78871;SDS011;68247;43.514;1.502;2024-02-26T10:28:29;5.80;;;1.50;;
78871;SDS011;68247;43.514;1.502;2024-02-26T10:30:55;5.53;;;1.63;;
78871;SDS011;68247;43.514;1.502;2024-02-26T10:33:20;3.47;;;1.23;;
78871;SDS011;68247;43.514;1.502;2024-02-26T10:35:46;5.30;;;1.20;;
78871;SDS011;68247;43.514;1.502;2024-02-26T10:38:12;2.97;;;1.20;;
78871;SDS011;68247;43.514;1.502;2024-02-26T10:40:37;5.35;;;1.90;;
78871;SDS011;68247;43.514;1.502;2024-02-26T10:43:02;4.40;;;1.30;;
78871;SDS011;68247;43.514;1.502;2024-02-26T10:45:28;5.67;;;1.20;;
78871;SDS011;68247;43.514;1.502;2024-02-26T10:47:53;5.72;;;1.60;;
78871;SDS011;68247;43.514;1.502;2024-02-26T10:50:19;3.05;;;1.50;;
78871;SDS011;68247;43.514;1.502;2024-02-26T10:52:44;3.50;;;1.40;;
78871;SDS011;68247;43.514;1.502;2024-02-26T10:55:13;4.63;;;1.80;;
78871;SDS011;68247;43.514;1.502;2024-02-26T10:57:42;4.57;;;1.40;;
78871;SDS011;68247;43.514;1.502;2024-02-26T11:00:10;6.00;;;2.05;;
78871;SDS011;68247;43.514;1.502;2024-02-26T11:02:38;4.20;;;1.55;;
78871;SDS011;68247;43.514;1.502;2024-02-26T11:05:05;3.50;;;1.30;;
78871;SDS011;68247;43.514;1.502;2024-02-26T11:07:31;2.58;;;1.35;;
78871;SDS011;68247;43.514;1.502;2024-02-26T11:10:01;4.03;;;1.40;;
78871;SDS011;68247;43.514;1.502;2024-02-26T11:12:28;3.67;;;1.50;;
78871;SDS011;68247;43.514;1.502;2024-02-26T11:14:54;2.92;;;1.30;;
78871;SDS011;68247;43.514;1.502;2024-02-26T11:17:22;4.82;;;1.50;;
78871;SDS011;68247;43.514;1.502;2024-02-26T11:19:48;3.72;;;1.20;;
78871;SDS011;68247;43.514;1.502;2024-02-26T11:22:15;3.45;;;1.38;;
78871;SDS011;68247;43.514;1.502;2024-02-26T11:24:40;3.70;;;1.43;;
78871;SDS011;68247;43.514;1.502;2024-02-26T11:27:07;4.65;;;1.45;;
78871;SDS011;68247;43.514;1.502;2024-02-26T11:29:37;4.38;;;1.48;;
78871;SDS011;68247;43.514;1.502;2024-02-26T11:32:04;2.97;;;1.40;;
78871;SDS011;68247;43.514;1.502;2024-02-26T11:34:30;3.38;;;1.48;;
78871;SDS011;68247;43.514;1.502;2024-02-26T11:36:56;3.87;;;1.40;;
78871;SDS011;68247;43.514;1.502;2024-02-26T11:39:22;2.70;;;1.40;;
78871;SDS011;68247;43.514;1.502;2024-02-26T11:41:48;5.00;;;1.35;;
78871;SDS011;68247;43.514;1.502;2024-02-26T11:44:15;4.72;;;1.23;;
78871;SDS011;68247;43.514;1.502;2024-02-26T11:46:53;3.80;;;1.20;;
78871;SDS011;68247;43.514;1.502;2024-02-26T11:51:57;3.30;;;1.40;;
78871;SDS011;68247;43.514;1.502;2024-02-26T11:54:45;4.97;;;1.40;;
78871;SDS011;68247;43.514;1.502;2024-02-26T12:07:39;3.00;;;1.30;;
78871;SDS011;68247;43.514;1.502;2024-02-26T12:10:15;3.28;;;1.33;;
78871;SDS011;68247;43.514;1.502;2024-02-26T12:12:42;3.90;;;1.13;;
78871;SDS011;68247;43.514;1.502;2024-02-26T12:15:08;3.30;;;1.37;;
78871;SDS011;68247;43.514;1.502;2024-02-26T12:17:33;3.53;;;1.05;;
78871;SDS011;68247;43.514;1.502;2024-02-26T12:20:09;4.22;;;1.30;;
78871;SDS011;68247;43.514;1.502;2024-02-26T12:22:35;3.07;;;1.70;;
78871;SDS011;68247;43.514;1.502;2024-02-26T12:25:04;3.63;;;1.70;;
78871;SDS011;68247;43.514;1.502;2024-02-26T12:27:30;3.03;;;1.52;;
78871;SDS011;68247;43.514;1.502;2024-02-26T12:29:56;4.40;;;1.50;;
78871;SDS011;68247;43.514;1.502;2024-02-26T12:32:21;3.77;;;1.60;;
78871;SDS011;68247;43.514;1.502;2024-02-26T12:34:48;5.88;;;1.60;;
78871;SDS011;68247;43.514;1.502;2024-02-26T12:37:14;3.28;;;1.52;;
78871;SDS011;68247;43.514;1.502;2024-02-26T12:39:40;4.53;;;1.65;;
78871;SDS011;68247;43.514;1.502;2024-02-26T12:42:06;3.37;;;1.70;;
78871;SDS011;68247;43.514;1.502;2024-02-26T12:44:31;3.57;;;1.80;;
78871;SDS011;68247;43.514;1.502;2024-02-26T12:47:00;4.30;;;1.87;;
78871;SDS011;68247;43.514;1.502;2024-02-26T12:49:27;2.87;;;1.53;;
78871;SDS011;68247;43.514;1.502;2024-02-26T12:51:53;2.70;;;2.17;;
78871;SDS011;68247;43.514;1.502;2024-02-26T12:54:18;3.07;;;1.57;;
78871;SDS011;68247;43.514;1.502;2024-02-26T12:56:44;2.80;;;1.53;;
78871;SDS011;68247;43.514;1.502;2024-02-26T12:59:09;3.47;;;2.20;;
78871;SDS011;68247;43.514;1.502;2024-02-26T13:01:35;2.90;;;1.77;;
78871;SDS011;68247;43.514;1.502;2024-02-26T13:04:01;2.67;;;1.47;;
78871;SDS011;68247;43.514;1.502;2024-02-26T13:06:31;5.53;;;1.80;;
78871;SDS011;68247;43.514;1.502;2024-02-26T13:08:57;4.90;;;1.63;;
78871;SDS011;68247;43.514;1.502;2024-02-26T13:11:26;2.78;;;1.50;;
78871;SDS011;68247;43.514;1.502;2024-02-26T13:13:54;3.28;;;1.52;;
78871;SDS011;68247;43.514;1.502;2024-02-26T13:16:19;4.17;;;1.73;;
78871;SDS011;68247;43.514;1.502;2024-02-26T13:18:49;2.60;;;1.55;;
78871;SDS011;68247;43.514;1.502;2024-02-26T13:21:15;4.27;;;1.70;;
78871;SDS011;68247;43.514;1.502;2024-02-26T13:23:41;3.88;;;1.60;;
78871;SDS011;68247;43.514;1.502;2024-02-26T13:26:07;3.03;;;1.90;;
78871;SDS011;68247;43.514;1.502;2024-02-26T13:28:34;2.78;;;1.50;;
78871;SDS011;68247;43.514;1.502;2024-02-26T13:30:59;4.30;;;1.50;;
78871;SDS011;68247;43.514;1.502;2024-02-26T13:33:26;4.30;;;1.48;;
78871;SDS011;68247;43.514;1.502;2024-02-26T13:35:53;4.30;;;1.90;;
78871;SDS011;68247;43.514;1.502;2024-02-26T13:38:19;3.85;;;1.55;;
78871;SDS011;68247;43.514;1.502;2024-02-26T13:40:45;3.50;;;1.77;;
78871;SDS011;68247;43.514;1.502;2024-02-26T13:43:10;4.93;;;1.80;;
78871;SDS011;68247;43.514;1.502;2024-02-26T13:45:37;4.57;;;1.80;;
78871;SDS011;68247;43.514;1.502;2024-02-26T13:48:04;3.25;;;1.70;;
78871;SDS011;68247;43.514;1.502;2024-02-26T13:50:30;4.25;;;1.42;;
78871;SDS011;68247;43.514;1.502;2024-02-26T13:52:56;4.10;;;1.90;;
78871;SDS011;68247;43.514;1.502;2024-02-26T13:55:23;4.30;;;1.67;;
78871;SDS011;68247;43.514;1.502;2024-02-26T13:57:53;7.35;;;2.17;;
78871;SDS011;68247;43.514;1.502;2024-02-26T14:00:19;3.38;;;1.67;;
78871;SDS011;68247;43.514;1.502;2024-02-26T14:02:45;4.83;;;1.60;;
78871;SDS011;68247;43.514;1.502;2024-02-26T14:05:10;4.15;;;1.52;;
78871;SDS011;68247;43.514;1.502;2024-02-26T14:07:36;3.90;;;1.70;;
78871;SDS011;68247;43.514;1.502;2024-02-26T14:10:01;7.20;;;1.73;;
78871;SDS011;68247;43.514;1.502;2024-02-26T14:12:27;4.43;;;1.75;;
78871;SDS011;68247;43.514;1.502;2024-02-26T14:14:53;5.23;;;1.83;;
78871;SDS011;68247;43.514;1.502;2024-02-26T14:17:20;3.00;;;1.70;;
78871;SDS011;68247;43.514;1.502;2024-02-26T14:19:46;5.37;;;1.70;;
78871;SDS011;68247;43.514;1.502;2024-02-26T14:22:13;4.50;;;1.58;;
78871;SDS011;68247;43.514;1.502;2024-02-26T14:24:39;3.88;;;1.60;;
78871;SDS011;68247;43.514;1.502;2024-02-26T14:27:05;5.97;;;1.80;;
78871;SDS011;68247;43.514;1.502;2024-02-26T14:29:32;3.85;;;1.60;;
78871;SDS011;68247;43.514;1.502;2024-02-26T14:31:57;3.60;;;1.50;;
78871;SDS011;68247;43.514;1.502;2024-02-26T14:34:23;4.93;;;1.73;;
78871;SDS011;68247;43.514;1.502;2024-02-26T14:36:48;6.43;;;2.20;;
78871;SDS011;68247;43.514;1.502;2024-02-26T14:39:14;3.57;;;1.80;;
78871;SDS011;68247;43.514;1.502;2024-02-26T14:41:39;4.80;;;1.47;;
78871;SDS011;68247;43.514;1.502;2024-02-26T14:44:05;3.50;;;1.63;;
78871;SDS011;68247;43.514;1.502;2024-02-26T14:46:30;2.83;;;1.67;;
78871;SDS011;68247;43.514;1.502;2024-02-26T14:48:56;2.80;;;1.90;;
78871;SDS011;68247;43.514;1.502;2024-02-26T14:51:24;2.53;;;1.60;;
78871;SDS011;68247;43.514;1.502;2024-02-26T14:53:50;2.45;;;1.70;;